Weather forecast for Mieroszów

Poland, 561 m
N50.672, E16.210


Sounding

Red line — air temperature ˚C.
Blue line — thermal bubble temperature ˚C.
Green line — dew point temperature ˚C.
Wind speed is in meters per second.

Table forecast

GFS 0.25˚ model

temp. wind gust humid. clouds prec. press. hpbl
Wed21 00:00 -2 86.0 e 2 4 95 99 0.2 1018 256
03:00 -2 82.0 e 2 3 95 99 0.1 1018 244
06:00 -2 75.0 ene 2 4 95 100 0.2 1019 262
09:00 -1 78.0 ene 2 5 91 99 0.1 1021 313
12:00 -0 79.0 e 3 6 87 99 0.2 1021 390
15:00 -2 72.0 ene 3 7 92 90 0.0 1021 412
18:00 -1 82.0 e 3 7 93 95 0.1 1022 396
21:00 -1 83.0 e 3 8 93 99 0.1 1023 355
 
Thu22 00:00 -1 81.0 e 2 6 95 98 0.1 1023 322
03:00 -1 84.0 e 2 5 96 100 0.1 1023 282
06:00 -1 88.0 e 2 4 96 100 0.1 1023 221
09:00 0 99.0 e 1 2 90 100 0.0 1024 227
12:00 1 104.0 ese 2 2 85 98 0.1 1024 318
15:00 -1 106.0 ese 1 2 96 92 0.0 1024 38
18:00 -2 149.0 sse 1 2 97 76 0.0 1024 27
21:00 -1 175.0 s 2 3 96 7 0.0 1024 50
 
Fri23 00:00 0 195.0 ssw 2 3 95 26 0.0 1025 61
03:00 0 194.0 ssw 2 3 95 22 0.0 1025 65
06:00 1 190.0 s 3 6 95 14 0.0 1024 147
09:00 5 194.0 ssw 4 10 86 27 0.0 1025 513
12:00 5 195.0 ssw 5 10 86 52 0.0 1023 691
15:00 3 202.0 ssw 5 12 92 53 0.0 1022 434
18:00 3 205.0 ssw 5 13 93 29 0.0 1021 428
21:00 3 206.0 ssw 6 13 91 78 0.0 1020 457
 
Sat24 00:00 3 208.0 ssw 4 13 92 88 0.0 1019 406
03:00 2 194.0 ssw 2 6 93 100 0.0 1016 206
06:00 3 178.0 s 2 2 94 100 0.3 1015 49
09:00 4 189.0 s 2 3 88 100 0.1 1015 196
12:00 6 208.0 ssw 1 2 85 98 0.1 1014 325
15:00 4 272.0 w 1 1 97 100 2.4 1015 23
18:00 3 286.0 wnw 1 1 98 100 2.7 1015 57
21:00 3 290.0 wnw 1 2 97 99 0.1 1016 116
 
Sun25 00:00 3 299.0 wnw 1 2 97 99 0.3 1017 80
03:00 2 318.0 nw 1 1 97 80 0.0 1016 29
06:00 2 171.0 s 0 0 95 83 0.1 1016 22
09:00 3 176.0 s 0 1 88 94 0.0 1017 196
12:00 4 107.0 ese 1 1 86 92 0.1 1016 309
15:00 3 69.0 ene 1 2 96 88 0.0 1016 56
18:00 2 69.0 ene 2 3 97 89 0.1 1016 213
21:00 2 81.0 e 2 3 97 99 0.2 1016 244
 

0.008 s